Time;durP1;ratioP1;P1;durP2;ratioP2;P2;SDS_P1;SDS_P2;PMS_P1;PMS_P2;Temp;Humidity;BMP_temperature;BMP_pressure;BME280_temperature;BME280_humidity;BME280_pressure;Samples;Min_cycle;Max_cycle;Signal;HPM_P1;HPM_P2
2021/01/12 00:00:31;;;;;;;72.60;46.25;;;;;;;4.57;100.00;100356.09;5050907;28;20033;-84
2021/01/12 00:02:58;;;;;;;66.25;41.50;;;;;;;4.58;100.00;100346.34;5050162;28;20049;-84
2021/01/12 00:05:24;;;;;;;70.40;42.60;;;;;;;4.60;100.00;100353.19;5050047;28;20044;-84
2021/01/12 00:07:50;;;;;;;68.60;41.28;;;;;;;4.60;100.00;100329.25;5050326;28;20041;-84
2021/01/12 00:10:17;;;;;;;61.03;37.55;;;;;;;4.61;100.00;100338.94;5050917;28;20095;-84
2021/01/12 00:12:42;;;;;;;67.47;43.42;;;;;;;4.63;100.00;100331.69;5050349;28;20049;-85
2021/01/12 00:15:08;;;;;;;70.15;43.08;;;;;;;4.64;100.00;100341.31;5050991;28;20087;-85
2021/01/12 00:17:33;;;;;;;67.55;40.95;;;;;;;4.66;100.00;100331.41;5051752;28;20047;-84
2021/01/12 00:19:59;;;;;;;65.82;42.53;;;;;;;4.67;100.00;100319.78;5049377;28;20061;-84
2021/01/12 00:22:24;;;;;;;64.68;38.97;;;;;;;4.70;100.00;100313.34;5051245;28;20083;-86
2021/01/12 00:24:51;;;;;;;63.50;41.00;;;;;;;4.73;100.00;100313.06;5051563;28;20041;-84
2021/01/12 00:27:19;;;;;;;59.08;35.22;;;;;;;4.74;100.00;100298.78;5051101;28;20037;-84
2021/01/12 00:29:45;;;;;;;65.95;39.08;;;;;;;4.77;100.00;100313.63;5051391;28;20072;-86
2021/01/12 00:32:20;;;;;;;64.30;36.95;;;;;;;4.77;100.00;100295.84;5050965;28;20467;-84
2021/01/12 00:34:45;;;;;;;62.67;39.40;;;;;;;4.80;100.00;100302.72;5050013;28;20152;-84
2021/01/12 00:37:12;;;;;;;58.80;34.78;;;;;;;4.82;100.00;100295.44;5048992;28;20033;-85
2021/01/12 00:39:37;;;;;;;61.10;35.45;;;;;;;4.82;100.00;100298.09;5050686;28;20047;-84
2021/01/12 00:42:03;;;;;;;64.25;36.70;;;;;;;4.84;100.00;100289.00;5048771;28;20460;-84
2021/01/12 00:44:29;;;;;;;54.63;32.13;;;;;;;4.86;100.00;100286.19;5050601;28;20052;-84
2021/01/12 00:46:55;;;;;;;55.70;34.30;;;;;;;4.88;100.00;100274.44;5050175;28;20127;-84
2021/01/12 00:49:23;;;;;;;49.72;30.30;;;;;;;4.88;100.00;100260.31;5048878;28;20438;-84
2021/01/12 00:51:49;;;;;;;57.30;35.85;;;;;;;4.87;100.00;100264.81;5049964;28;20045;-83
2021/01/12 00:54:17;;;;;;;55.60;32.63;;;;;;;4.89;100.00;100251.34;5050579;28;20162;-83
2021/01/12 00:56:43;;;;;;;62.60;37.78;;;;;;;4.89;100.00;100260.19;5050611;28;20045;-83
2021/01/12 00:59:08;;;;;;;50.65;28.60;;;;;;;4.89;100.00;100248.69;5049887;28;20044;-84
2021/01/12 01:01:35;;;;;;;51.42;33.78;;;;;;;4.93;100.00;100247.44;5050423;28;20048;-86
2021/01/12 01:04:01;;;;;;;53.33;33.92;;;;;;;4.94;100.00;100251.78;5050738;28;20048;-84
2021/01/12 01:06:27;;;;;;;46.90;29.52;;;;;;;4.95;100.00;100216.25;5050941;28;20037;-84
2021/01/12 01:08:52;;;;;;;43.70;29.02;;;;;;;4.97;100.00;100224.91;5050087;28;20562;-84
2021/01/12 01:11:19;;;;;;;51.85;34.63;;;;;;;4.98;100.00;100231.91;5049102;28;20119;-84
2021/01/12 01:13:44;;;;;;;48.00;31.67;;;;;;;4.97;100.00;100227.56;5050408;28;20072;-84
2021/01/12 01:16:10;;;;;;;44.60;27.05;;;;;;;4.99;100.00;100228.28;5049574;28;20045;-85
2021/01/12 01:18:36;;;;;;;42.10;28.90;;;;;;;5.01;100.00;100228.97;5050789;28;20073;-84
2021/01/12 01:21:01;;;;;;;42.78;25.70;;;;;;;5.04;100.00;100225.19;5048637;28;20041;-84
2021/01/12 01:23:27;;;;;;;40.42;26.67;;;;;;;5.06;100.00;100207.25;5032323;28;20045;-84
2021/01/12 01:25:52;;;;;;;39.95;22.50;;;;;;;5.07;100.00;100215.09;5049882;28;20048;-84
2021/01/12 01:28:24;;;;;;;36.22;23.98;;;;;;;5.10;100.00;100214.81;5050073;28;20045;-85
2021/01/12 01:30:53;;;;;;;36.45;24.30;;;;;;;5.11;100.00;100215.66;5048509;28;20048;-84
2021/01/12 01:33:19;;;;;;;29.85;19.00;;;;;;;5.13;100.00;100205.72;5049097;28;20101;-84
2021/01/12 01:35:46;;;;;;;32.67;23.55;;;;;;;5.13;100.00;100197.75;5050182;28;20120;-84
2021/01/12 01:38:11;;;;;;;30.45;20.52;;;;;;;5.14;100.00;100210.88;5049569;28;20037;-84
2021/01/12 01:40:37;;;;;;;31.00;20.25;;;;;;;5.14;100.00;100192.25;5058373;28;20048;-84
2021/01/12 01:43:03;;;;;;;26.63;18.50;;;;;;;5.14;100.00;100173.63;5031630;28;20079;-84
2021/01/12 01:45:29;;;;;;;25.65;16.10;;;;;;;5.14;100.00;100189.59;5050178;28;20029;-85
2021/01/12 01:47:54;;;;;;;28.15;18.80;;;;;;;5.15;100.00;100177.13;5049628;28;20047;-83
2021/01/12 01:50:21;;;;;;;24.88;16.17;;;;;;;5.15;100.00;100180.66;5049847;28;20037;-83
2021/01/12 01:52:54;;;;;;;27.13;17.05;;;;;;;5.18;100.00;100174.22;5049707;28;20697;-84
2021/01/12 01:55:21;;;;;;;24.77;15.57;;;;;;;5.18;100.00;100169.72;5047313;28;20128;-84
2021/01/12 01:57:47;;;;;;;22.90;14.90;;;;;;;5.20;100.00;100161.59;5049675;28;20207;-84
2021/01/12 02:00:17;;;;;;;25.13;18.02;;;;;;;5.19;100.00;100144.78;5047299;28;20060;-84
2021/01/12 02:02:48;;;;;;;22.73;17.10;;;;;;;5.20;100.00;100149.13;5047996;28;20056;-83
2021/01/12 02:05:14;;;;;;;20.77;13.60;;;;;;;5.22;100.00;100148.16;5049002;28;20041;-84
2021/01/12 02:07:44;;;;;;;21.60;16.58;;;;;;;5.23;100.00;100149.81;5049497;28;20029;-84
2021/01/12 02:10:14;;;;;;;22.65;13.18;;;;;;;5.23;100.00;100165.78;5048651;28;20530;-86
2021/01/12 02:12:46;;;;;;;20.73;16.00;;;;;;;5.24;100.00;100130.22;5050019;28;20033;-84
2021/01/12 02:15:17;;;;;;;19.42;14.52;;;;;;;5.26;100.00;100133.56;5052850;28;20052;-85
2021/01/12 02:17:44;;;;;;;20.67;15.63;;;;;;;5.27;100.00;100124.63;5051842;28;20057;-84
2021/01/12 02:20:12;;;;;;;20.38;14.35;;;;;;;5.27;100.00;100128.09;5052805;28;20041;-84
2021/01/12 02:22:41;;;;;;;17.30;10.43;;;;;;;5.28;100.00;100112.97;5051923;28;20438;-84
2021/01/12 02:25:08;;;;;;;17.77;13.25;;;;;;;5.29;100.00;100112.81;5051512;28;20381;-84
2021/01/12 02:27:34;;;;;;;18.27;12.75;;;;;;;5.30;100.00;100105.69;5065556;28;20044;-85
2021/01/12 02:29:59;;;;;;;14.27;10.45;;;;;;;5.31;100.00;100104.72;5063945;28;20048;-85
2021/01/12 02:32:24;;;;;;;13.85;10.15;;;;;;;5.31;100.00;100104.72;5051710;28;20060;-85
2021/01/12 02:34:54;;;;;;;16.70;12.48;;;;;;;5.33;100.00;100108.06;5064510;28;20037;-84
2021/01/12 02:37:20;;;;;;;;;;;;;;;5.36;100.00;100094.47;5065204;28;20045;-85
2021/01/12 02:39:56;;;;;;;15.85;10.70;;;;;;;5.29;100.00;100093.38;5062696;28;19936;-85
2021/01/12 02:42:21;;;;;;;14.32;9.55;;;;;;;5.30;100.00;100087.06;5062204;28;20083;-85
2021/01/12 02:44:47;;;;;;;13.52;9.85;;;;;;;5.32;100.00;100083.28;5064367;28;20047;-85
2021/01/12 02:47:12;;;;;;;14.50;9.55;;;;;;;5.34;100.00;100075.97;5065034;28;20092;-85
2021/01/12 02:49:37;;;;;;;15.15;10.82;;;;;;;5.37;100.00;100072.19;5065907;28;20112;-85
2021/01/12 02:52:03;;;;;;;15.45;10.90;;;;;;;5.38;100.00;100063.19;5065127;28;20137;-85
2021/01/12 02:54:30;;;;;;;14.85;9.10;;;;;;;5.40;100.00;100064.72;5064769;28;20039;-85
2021/01/12 02:56:56;;;;;;;14.85;11.18;;;;;;;5.41;100.00;100073.56;5075344;28;20037;-84
2021/01/12 02:59:21;;;;;;;14.23;9.13;;;;;;;5.43;100.00;100058.28;5067058;28;20124;-84
2021/01/12 03:01:46;;;;;;;14.75;8.73;;;;;;;5.43;100.00;100043.16;5062668;28;20041;-85
2021/01/12 03:04:12;;;;;;;14.20;9.80;;;;;;;5.45;100.00;100050.16;5083525;28;20040;-85
2021/01/12 03:06:37;;;;;;;15.10;10.32;;;;;;;5.43;100.00;100032.50;5065018;28;20067;-85
2021/01/12 03:09:04;;;;;;;12.43;8.45;;;;;;;5.46;100.00;100043.84;5066987;28;20132;-85
2021/01/12 03:11:29;;;;;;;13.57;9.43;;;;;;;5.45;100.00;100035.03;5068046;28;20048;-85
2021/01/12 03:13:55;;;;;;;12.25;8.77;;;;;;;5.45;100.00;100032.38;5048571;28;20064;-85
2021/01/12 03:16:21;;;;;;;15.45;8.85;;;;;;;5.46;100.00;100041.19;5062246;28;20041;-85
2021/01/12 03:18:47;;;;;;;16.00;8.85;;;;;;;5.47;100.00;100032.19;5061841;28;20071;-85
2021/01/12 03:21:12;;;;;;;14.02;8.07;;;;;;;5.47;100.00;100026.88;5061882;28;20260;-85
2021/01/12 03:23:38;;;;;;;11.85;6.97;;;;;;;5.48;100.00;100029.41;5058980;28;20053;-85
2021/01/12 03:26:03;;;;;;;12.82;8.55;;;;;;;5.49;100.00;100033.72;5067492;28;20036;-84
2021/01/12 03:28:29;;;;;;;12.02;7.88;;;;;;;5.50;100.00;100000.81;5065239;28;20094;-85
2021/01/12 03:30:54;;;;;;;10.95;7.30;;;;;;;5.50;100.00;100013.31;5065542;28;20042;-85
2021/01/12 03:33:22;;;;;;;11.27;7.43;;;;;;;5.50;100.00;100016.78;5067403;28;20075;-85
2021/01/12 03:35:48;;;;;;;12.88;8.43;;;;;;;5.52;100.00;100012.13;5060283;28;20049;-85
2021/01/12 03:38:14;;;;;;;11.80;8.48;;;;;;;5.54;100.00;100006.69;5061963;28;20057;-85
2021/01/12 03:40:40;;;;;;;13.13;8.23;;;;;;;5.54;100.00;100006.69;5060351;28;20046;-85
2021/01/12 03:43:05;;;;;;;10.63;6.85;;;;;;;5.54;100.00;99994.19;5066783;28;20049;-84
2021/01/12 03:45:30;;;;;;;10.15;7.28;;;;;;;5.56;100.00;99986.09;5060537;28;20045;-85
2021/01/12 03:47:56;;;;;;;12.13;9.18;;;;;;;5.57;100.00;99983.25;5065892;28;20041;-85
2021/01/12 03:50:25;;;;;;;12.35;7.95;;;;;;;5.57;100.00;99990.41;5050534;28;20059;-85
2021/01/12 03:52:54;;;;;;;10.73;7.07;;;;;;;5.58;100.00;99984.94;5067166;28;20041;-85
2021/01/12 03:55:19;;;;;;;11.40;7.78;;;;;;;5.59;100.00;99991.94;5068233;28;20079;-85
2021/01/12 03:57:45;;;;;;;11.73;6.55;;;;;;;5.61;100.00;99978.44;5065326;28;20036;-85
2021/01/12 04:00:11;;;;;;;11.73;6.88;;;;;;;5.60;100.00;99968.81;5061651;28;20045;-85
2021/01/12 04:02:37;;;;;;;12.40;7.43;;;;;;;5.61;100.00;99973.13;5063720;28;20070;-84
2021/01/12 04:05:02;;;;;;;11.82;6.18;;;;;;;5.61;100.00;99967.81;5066030;28;20041;-84
2021/01/12 04:07:28;;;;;;;11.25;8.07;;;;;;;5.62;100.00;99959.69;5048479;28;20045;-85
2021/01/12 04:09:53;;;;;;;11.00;6.78;;;;;;;5.63;100.00;99966.66;5063936;28;20057;-85
2021/01/12 04:12:19;;;;;;;11.73;7.50;;;;;;;5.63;100.00;99956.03;5067961;28;20041;-85
2021/01/12 04:14:44;;;;;;;11.85;8.13;;;;;;;5.63;100.00;99956.03;5055795;28;20056;-85
2021/01/12 04:17:09;;;;;;;14.65;7.30;;;;;;;5.64;100.00;99931.09;5066454;28;20045;-85
2021/01/12 04:19:35;;;;;;;11.20;7.35;;;;;;;5.65;100.00;99932.75;5091137;28;20041;-85
2021/01/12 04:22:00;;;;;;;10.85;7.80;;;;;;;5.65;100.00;99918.63;5065698;28;20045;-85
2021/01/12 04:24:26;;;;;;;11.75;7.22;;;;;;;5.66;100.00;99934.41;5068762;28;20052;-85
2021/01/12 04:26:51;;;;;;;12.10;7.40;;;;;;;5.66;100.00;99934.41;5049469;28;20045;-85
2021/01/12 04:29:17;;;;;;;10.35;7.07;;;;;;;5.68;100.00;99931.63;5049195;28;20068;-85
2021/01/12 04:31:42;;;;;;;12.68;7.75;;;;;;;5.71;100.00;99928.66;5031960;28;20053;-85
2021/01/12 04:34:07;;;;;;;12.25;7.82;;;;;;;5.71;100.00;99939.28;5066316;28;20147;-85
2021/01/12 04:36:33;;;;;;;11.20;6.30;;;;;;;5.71;100.00;99931.31;5061467;28;20057;-85
2021/01/12 04:38:58;;;;;;;10.52;6.80;;;;;;;5.72;100.00;99930.31;5066107;28;20036;-85
2021/01/12 04:41:24;;;;;;;12.27;8.00;;;;;;;5.73;100.00;99920.53;5064753;28;20037;-85
2021/01/12 04:43:49;;;;;;;14.05;8.88;;;;;;;5.73;100.00;99917.84;5059243;28;20048;-85
2021/01/12 04:46:15;;;;;;;12.85;7.68;;;;;;;5.72;100.00;99921.50;5064710;28;20132;-85
2021/01/12 04:48:41;;;;;;;15.30;7.75;;;;;;;5.73;100.00;99926.69;5046640;28;20396;-85
2021/01/12 04:51:08;;;;;;;14.10;7.97;;;;;;;5.75;100.00;99926.50;5063473;28;20037;-85
2021/01/12 04:53:47;;;;;;;14.27;7.93;;;;;;;5.73;100.00;99916.03;5066426;28;20083;-85
2021/01/12 04:56:14;;;;;;;16.15;10.60;;;;;;;5.76;100.00;99913.06;5066163;28;20049;-85
2021/01/12 04:58:41;;;;;;;17.40;9.88;;;;;;;5.77;100.00;99905.91;5066166;28;20037;-85
2021/01/12 05:01:15;;;;;;;19.02;10.55;;;;;;;5.79;100.00;99907.41;5058575;28;20030;-85
2021/01/12 05:03:42;;;;;;;16.13;10.05;;;;;;;5.80;100.00;99900.25;5092739;28;20181;-85
2021/01/12 05:06:09;;;;;;;17.77;11.05;;;;;;;5.80;100.00;99906.41;5065071;28;20587;-85
2021/01/12 05:08:34;;;;;;;18.42;11.55;;;;;;;5.80;100.00;99908.25;5064121;28;20047;-86
2021/01/12 05:11:00;;;;;;;18.55;12.60;;;;;;;5.79;100.00;99898.59;5055825;28;20033;-86
2021/01/12 05:13:26;;;;;;;18.55;11.38;;;;;;;5.79;100.00;99888.78;5062147;28;20060;-85
2021/01/12 05:15:53;;;;;;;19.83;11.88;;;;;;;5.80;100.00;99881.63;5065719;28;20041;-85
2021/01/12 05:18:19;;;;;;;19.55;11.40;;;;;;;5.79;100.00;99885.28;5067290;28;20061;-85
2021/01/12 05:20:50;;;;;;;21.08;12.63;;;;;;;5.82;100.00;99890.31;5049046;28;20063;-85
2021/01/12 05:23:23;;;;;;;17.38;9.95;;;;;;;5.84;100.00;99877.66;5055844;28;20033;-85
2021/01/12 05:25:51;;;;;;;19.60;11.40;;;;;;;5.85;100.00;99879.34;5064720;28;20110;-86
2021/01/12 05:28:18;;;;;;;17.92;9.73;;;;;;;5.88;100.00;99887.00;5057289;28;20053;-85
2021/01/12 05:30:45;;;;;;;16.63;9.30;;;;;;;5.89;100.00;99884.19;5060611;28;20124;-85
2021/01/12 05:33:16;;;;;;;16.20;9.02;;;;;;;5.95;100.00;99873.94;5067495;28;20045;-85
2021/01/12 05:35:45;;;;;;;14.82;8.90;;;;;;;5.96;100.00;99870.28;5062065;28;20040;-85
2021/01/12 05:38:10;;;;;;;14.15;7.93;;;;;;;5.96;100.00;99867.63;5062713;28;20045;-85
2021/01/12 05:40:40;;;;;;;12.35;7.72;;;;;;;5.98;100.00;99863.78;5062427;28;20048;-85
2021/01/12 05:43:12;;;;;;;12.02;8.30;;;;;;;5.99;100.00;99872.66;5063860;28;20040;-85
2021/01/12 05:45:38;;;;;;;13.88;8.43;;;;;;;5.97;100.00;99872.78;5065267;28;20049;-85
2021/01/12 05:48:05;;;;;;;12.23;6.45;;;;;;;5.98;100.00;99861.13;5058717;28;20029;-85
2021/01/12 05:50:31;;;;;;;11.95;6.18;;;;;;;5.98;100.00;99869.13;5062737;28;20041;-85
2021/01/12 05:53:07;;;;;;;11.50;6.50;;;;;;;6.00;100.00;99856.50;5077311;28;20047;-85
2021/01/12 05:55:40;;;;;;;12.77;8.02;;;;;;;6.00;100.00;99866.31;5082714;28;20052;-85
2021/01/12 05:58:29;;;;;;;11.93;6.38;;;;;;;6.01;100.00;99867.97;5049695;28;20053;-85
2021/01/12 06:00:55;;;;;;;10.63;6.55;;;;;;;5.98;100.00;99855.81;5054845;28;20029;-85
2021/01/12 06:03:24;;;;;;;12.48;6.20;;;;;;;5.98;100.00;99853.13;5062317;28;20043;-85
2021/01/12 06:05:51;;;;;;;12.05;5.47;;;;;;;6.00;100.00;99855.66;5064351;28;20372;-85
2021/01/12 06:08:22;;;;;;;10.18;6.13;;;;;;;6.00;100.00;99856.50;5064526;28;20060;-85
2021/01/12 06:10:47;;;;;;;12.70;6.97;;;;;;;5.99;100.00;99848.69;5066640;28;20048;-85
2021/01/12 06:13:15;;;;;;;8.80;5.28;;;;;;;6.00;100.00;99855.66;5063920;28;20083;-85
2021/01/12 06:15:43;;;;;;;9.98;5.28;;;;;;;6.00;100.00;99851.16;5078048;28;20053;-85
2021/01/12 06:18:15;;;;;;;12.48;5.78;;;;;;;6.04;100.00;99846.34;5044132;28;20056;-85
2021/01/12 06:20:53;;;;;;;13.15;6.68;;;;;;;6.02;100.00;99841.19;4982505;28;20039;-85
2021/01/12 06:23:31;;;;;;;11.30;7.03;;;;;;;6.02;100.00;99848.34;4961508;28;20039;-85
2021/01/12 06:25:58;;;;;;;10.90;6.22;;;;;;;6.02;100.00;99837.69;4949139;28;20309;-84
2021/01/12 06:28:24;;;;;;;13.65;5.38;;;;;;;6.01;100.00;99847.53;4933638;29;20107;-85
2021/01/12 06:30:49;;;;;;;12.68;6.97;;;;;;;6.01;100.00;99847.53;4943680;28;20043;-85
2021/01/12 06:33:15;;;;;;;12.05;7.30;;;;;;;6.03;100.00;99844.69;4961701;28;20035;-85
2021/01/12 06:35:42;;;;;;;13.48;7.15;;;;;;;6.02;100.00;99846.53;4953732;29;20123;-84
2021/01/12 06:38:18;;;;;;;12.32;6.95;;;;;;;6.02;100.00;99851.84;4959732;28;20059;-85
2021/01/12 06:40:47;;;;;;;13.32;7.38;;;;;;;6.01;100.00;99844.00;4962323;28;20067;-84
2021/01/12 06:43:14;;;;;;;12.00;6.97;;;;;;;6.00;100.00;99848.50;4964040;28;20113;-85
2021/01/12 06:45:40;;;;;;;13.38;6.93;;;;;;;6.01;100.00;99846.66;4946218;29;20142;-84
2021/01/12 06:48:15;;;;;;;10.40;5.88;;;;;;;6.01;100.00;99842.19;4958505;28;20051;-85
2021/01/12 06:50:45;;;;;;;11.45;6.78;;;;;;;6.00;100.00;99850.34;4970963;28;20041;-85
2021/01/12 06:53:12;;;;;;;12.38;6.00;;;;;;;6.01;100.00;99852.00;5022467;28;20619;-85
2021/01/12 06:55:38;;;;;;;12.98;7.10;;;;;;;6.00;100.00;99842.34;5085900;28;20047;-84
2021/01/12 06:58:08;;;;;;;12.65;6.60;;;;;;;5.98;100.00;99842.50;5060578;28;20096;-85
2021/01/12 07:00:35;;;;;;;10.77;5.70;;;;;;;6.00;100.00;99837.84;5067425;28;20074;-85
2021/01/12 07:03:01;;;;;;;10.75;6.13;;;;;;;6.02;100.00;99846.53;5073361;28;20029;-85
2021/01/12 07:05:37;;;;;;;12.65;6.75;;;;;;;6.03;100.00;99840.19;5055541;28;20047;-86
2021/01/12 07:08:08;;;;;;;11.75;6.93;;;;;;;6.03;100.00;99850.84;5053978;28;20037;-86
2021/01/12 07:10:40;;;;;;;10.38;5.57;;;;;;;6.02;100.00;99843.84;5072609;28;20052;-86
2021/01/12 07:13:06;;;;;;;12.05;6.82;;;;;;;6.03;100.00;99842.03;5051916;28;20050;-85
2021/01/12 07:15:41;;;;;;;10.68;6.20;;;;;;;6.03;100.00;99844.69;5052763;28;20045;-85
2021/01/12 07:18:07;;;;;;;12.00;6.50;;;;;;;6.03;100.00;99840.19;5053478;28;20044;-86
2021/01/12 07:20:36;;;;;;;10.77;5.63;;;;;;;6.04;100.00;99849.88;5056732;28;20037;-86
2021/01/12 07:23:07;;;;;;;11.30;6.80;;;;;;;6.03;100.00;99845.53;5039731;28;20049;-85
2021/01/12 07:25:40;;;;;;;9.55;6.07;;;;;;;6.03;100.00;99840.19;5058707;28;20045;-86
2021/01/12 07:28:22;;;;;;;12.00;6.43;;;;;;;6.02;100.00;99851.84;5059094;28;20044;-86
2021/01/12 07:30:50;;;;;;;11.45;7.13;;;;;;;6.02;100.00;99859.00;5050685;28;20118;-86
2021/01/12 07:33:15;;;;;;;12.02;6.75;;;;;;;6.00;100.00;99861.81;5055818;28;20049;-86
2021/01/12 07:35:40;;;;;;;11.65;5.70;;;;;;;6.00;100.00;99859.16;5054793;28;20407;-86
2021/01/12 07:38:06;;;;;;;11.70;6.80;;;;;;;6.00;100.00;99861.81;5055281;28;20554;-85
2021/01/12 07:40:33;;;;;;;12.32;7.57;;;;;;;6.01;100.00;99873.31;5052027;28;20041;-86
2021/01/12 07:43:00;;;;;;;10.40;6.82;;;;;;;5.99;100.00;99875.31;5054265;28;20033;-86
2021/01/12 07:45:28;;;;;;;10.02;6.30;;;;;;;5.98;100.00;99869.13;5051575;28;20050;-85
2021/01/12 07:47:58;;;;;;;10.63;6.05;;;;;;;5.98;100.00;99870.94;5050323;28;20046;-85
2021/01/12 07:50:26;;;;;;;10.85;5.97;;;;;;;5.97;100.00;99879.94;5052213;28;20049;-86
2021/01/12 07:52:52;;;;;;;13.15;7.38;;;;;;;5.97;100.00;99882.59;5078714;28;20080;-86
2021/01/12 07:55:18;;;;;;;15.00;10.93;;;;;;;5.95;100.00;99890.75;5056690;28;20055;-85
2021/01/12 07:57:48;;;;;;;17.50;11.20;;;;;;;5.95;100.00;99893.41;5049345;28;20041;-86
2021/01/12 08:00:15;;;;;;;15.77;8.80;;;;;;;5.95;100.00;99890.75;5043771;28;20061;-86
2021/01/12 08:02:52;;;;;;;12.43;8.88;;;;;;;5.96;100.00;99902.25;5061686;28;20041;-86
2021/01/12 08:05:19;;;;;;;11.90;7.85;;;;;;;5.94;100.00;99899.72;5060676;28;20094;-86
2021/01/12 08:07:45;;;;;;;14.02;8.50;;;;;;;5.95;100.00;99900.56;5051914;28;20226;-85
2021/01/12 08:10:11;;;;;;;14.18;7.75;;;;;;;5.95;100.00;99912.03;5068001;28;20263;-85
2021/01/12 08:12:37;;;;;;;12.98;8.07;;;;;;;5.95;100.00;99903.22;5059565;28;20740;-86
2021/01/12 08:15:11;;;;;;;13.95;8.10;;;;;;;5.94;100.00;99910.38;5038165;28;20779;-86
2021/01/12 08:17:50;;;;;;;13.15;8.27;;;;;;;5.94;100.00;99913.03;5046942;28;20071;-85
2021/01/12 08:20:17;;;;;;;13.85;8.02;;;;;;;5.93;100.00;99914.06;5051060;28;20094;-86
2021/01/12 08:22:56;;;;;;;16.30;8.32;;;;;;;5.93;100.00;99907.81;5044134;28;20464;-85
2021/01/12 08:25:23;;;;;;;15.40;8.98;;;;;;;5.93;100.00;99916.72;5061496;28;20124;-85
2021/01/12 08:27:49;;;;;;;14.35;7.40;;;;;;;5.92;100.00;99922.16;5052732;28;20043;-86
2021/01/12 08:30:18;;;;;;;13.05;7.30;;;;;;;5.92;100.00;99911.50;5055250;28;20072;-85
2021/01/12 08:32:46;;;;;;;;;;;;;;;5.93;100.00;99926.47;5045995;28;20067;-86
2021/01/12 08:35:13;;;;;;;14.70;8.60;;;;;;;5.86;100.00;99929.75;5052494;28;19928;-86
2021/01/12 08:37:41;;;;;;;15.40;7.65;;;;;;;5.87;100.00;99922.63;5056943;28;20041;-86
2021/01/12 08:40:08;;;;;;;16.27;9.38;;;;;;;5.91;100.00;99925.81;5057648;28;20119;-85
2021/01/12 08:42:38;;;;;;;13.88;8.45;;;;;;;5.90;100.00;99927.66;5059853;28;20075;-85
2021/01/12 08:45:17;;;;;;;14.02;8.70;;;;;;;5.92;100.00;99935.47;5056172;28;20111;-86
2021/01/12 08:47:45;;;;;;;;;;;;;;;5.93;100.00;99942.44;5052705;28;20108;-86
2021/01/12 08:50:11;;;;;;;13.05;7.95;;;;;;;5.86;100.00;99945.72;5069013;28;20191;-85
2021/01/12 08:52:44;;;;;;;13.80;8.95;;;;;;;5.88;100.00;99942.94;5053126;28;20048;-85
2021/01/12 08:55:21;;;;;;;14.93;9.38;;;;;;;5.89;100.00;99956.06;5071525;28;20056;-85
2021/01/12 08:57:56;;;;;;;14.65;7.53;;;;;;;5.90;100.00;99956.94;5053881;28;20040;-86
2021/01/12 09:00:41;;;;;;;14.85;7.57;;;;;;;5.91;100.00;99963.09;5045187;28;20038;-85
2021/01/12 09:03:12;;;;;;;12.45;7.82;;;;;;;5.91;100.00;99973.75;5053114;28;20040;-85
2021/01/12 09:05:40;;;;;;;10.40;7.03;;;;;;;5.89;100.00;99981.88;5058233;28;20040;-85
2021/01/12 09:08:15;;;;;;;16.55;7.57;;;;;;;5.88;100.00;99998.84;5043953;28;20045;-85
2021/01/12 09:10:41;;;;;;;9.70;6.70;;;;;;;5.87;100.00;99994.53;5040364;28;20068;-86
2021/01/12 09:13:07;;;;;;;11.68;5.85;;;;;;;5.84;100.00;100000.13;5036964;28;20041;-85
2021/01/12 09:15:35;;;;;;;9.68;5.97;;;;;;;5.82;100.00;100007.44;5024737;28;20079;-85
2021/01/12 09:18:01;;;;;;;9.30;5.90;;;;;;;5.78;100.00;100016.72;5047332;28;20041;-86
2021/01/12 09:20:26;;;;;;;11.82;5.68;;;;;;;5.72;100.00;100023.47;5041274;28;20052;-85
2021/01/12 09:22:52;;;;;;;8.38;5.07;;;;;;;5.67;100.00;100028.44;5005934;28;20044;-85
2021/01/12 09:25:24;;;;;;;9.65;4.85;;;;;;;5.62;100.00;100044.03;4995180;28;20049;-86
2021/01/12 09:27:50;;;;;;;6.47;4.03;;;;;;;5.58;100.00;100040.84;4979753;28;20043;-85
2021/01/12 09:30:23;;;;;;;8.23;4.78;;;;;;;5.54;100.00;100051.91;4955427;28;20438;-86
2021/01/12 09:32:48;;;;;;;8.35;4.28;;;;;;;5.51;100.00;100053.06;4958544;28;20051;-85
2021/01/12 09:35:19;;;;;;;8.57;3.20;;;;;;;5.48;100.00;100052.53;4957167;28;20062;-86
2021/01/12 09:37:58;;;;;;;6.35;4.25;;;;;;;5.43;100.00;100074.25;4948953;29;20099;-85
2021/01/12 09:40:23;;;;;;;5.28;2.50;;;;;;;5.39;100.00;100072.88;4938453;29;20118;-86
2021/01/12 09:42:49;;;;;;;8.88;3.30;;;;;;;5.36;100.00;100073.19;4940216;28;20046;-85
2021/01/12 09:45:14;;;;;;;6.82;2.67;;;;;;;5.36;100.00;100081.16;4943595;29;20051;-86
2021/01/12 09:47:39;;;;;;;7.95;3.90;;;;;;;5.36;100.00;100089.97;4940209;29;20055;-86
2021/01/12 09:50:06;;;;;;;10.13;4.00;;;;;;;5.32;100.00;100096.59;4955264;28;20040;-85
2021/01/12 09:52:31;;;;;;;8.68;3.65;;;;;;;5.32;100.00;100103.72;4954242;28;20048;-85
2021/01/12 09:54:56;;;;;;;6.53;2.97;;;;;;;5.30;100.00;100103.88;4984466;28;20112;-86
2021/01/12 09:57:22;;;;;;;6.00;3.00;;;;;;;5.29;100.00;100110.16;5030621;28;20132;-86
2021/01/12 09:59:47;;;;;;;10.48;4.28;;;;;;;5.28;100.00;100115.63;5060849;28;20216;-86
2021/01/12 10:02:13;;;;;;;11.57;4.65;;;;;;;5.28;100.00;100116.47;5042674;28;20048;-85
2021/01/12 10:04:38;;;;;;;16.45;7.38;;;;;;;5.27;100.00;100122.78;5059363;28;20045;-85
2021/01/12 10:07:04;;;;;;;11.23;5.30;;;;;;;5.24;100.00;100125.75;5083143;28;20683;-86
2021/01/12 10:09:29;;;;;;;7.03;2.63;;;;;;;5.22;100.00;100129.53;5048178;28;20049;-85
2021/01/12 10:11:55;;;;;;;10.50;3.40;;;;;;;5.22;100.00;100129.53;5045069;28;20132;-86
2021/01/12 10:14:24;;;;;;;7.07;2.50;;;;;;;5.22;100.00;100134.84;5046207;28;20171;-85
2021/01/12 10:16:50;;;;;;;7.45;2.25;;;;;;;5.22;100.00;100141.00;5043060;28;20044;-86
2021/01/12 10:19:16;;;;;;;5.00;2.30;;;;;;;5.18;100.00;100143.13;5046660;28;20128;-86
2021/01/12 10:21:41;;;;;;;9.60;2.67;;;;;;;5.20;100.00;100146.47;5048895;28;20087;-86
2021/01/12 10:24:07;;;;;;;8.18;3.08;;;;;;;5.14;100.00;100136.41;5049503;28;20032;-86
2021/01/12 10:26:33;;;;;;;8.13;2.33;;;;;;;5.15;100.00;100138.09;5047024;28;20496;-86
2021/01/12 10:28:59;;;;;;;5.20;2.38;;;;;;;5.18;100.00;100150.28;5057140;28;20044;-85
2021/01/12 10:31:25;;;;;;;8.75;2.63;;;;;;;5.22;100.00;100153.47;5053237;28;20067;-86
2021/01/12 10:33:51;;;;;;;7.82;2.67;;;;;;;5.17;100.00;100152.06;5059777;28;20049;-86
2021/01/12 10:36:19;;;;;;;7.00;2.90;;;;;;;5.16;100.00;100155.72;5057906;28;20109;-85
2021/01/12 10:38:45;;;;;;;7.50;3.20;;;;;;;5.11;100.00;100165.94;5052518;28;20068;-85
2021/01/12 10:41:11;;;;;;;11.20;2.92;;;;;;;5.07;100.00;100167.22;5044902;28;20048;-83
2021/01/12 10:43:36;;;;;;;8.88;2.83;;;;;;;5.09;100.00;100169.72;5049563;28;20061;-85
2021/01/12 10:46:02;;;;;;;7.65;3.00;;;;;;;5.06;100.00;100170.84;5045729;28;20037;-84
2021/01/12 10:48:28;;;;;;;9.30;2.63;;;;;;;5.05;100.00;100173.69;5040419;28;20040;-84
2021/01/12 10:50:58;;;;;;;5.32;2.50;;;;;;;5.05;100.00;100174.50;5049909;28;20048;-85
2021/01/12 10:53:23;;;;;;;5.53;2.63;;;;;;;5.06;100.00;100185.97;5057869;28;20045;-85
2021/01/12 10:55:52;;;;;;;5.25;2.63;;;;;;;5.03;100.00;100192.41;5042062;28;20514;-85
2021/01/12 10:58:18;;;;;;;5.15;2.10;;;;;;;4.96;100.00;100194.00;5054011;28;20118;-85
2021/01/12 11:00:46;;;;;;;7.78;2.75;;;;;;;4.96;100.00;100202.78;5061841;28;20044;-85
2021/01/12 11:03:13;;;;;;;7.85;2.88;;;;;;;4.94;100.00;100196.78;5079954;28;20053;-85
2021/01/12 11:05:39;;;;;;;7.22;2.92;;;;;;;4.90;100.00;100199.88;5061515;28;20076;-85
2021/01/12 11:08:05;;;;;;;7.03;2.67;;;;;;;4.89;100.00;100211.47;5064546;28;20061;-85
2021/01/12 11:10:30;;;;;;;7.00;2.60;;;;;;;4.91;100.00;100209.53;5056740;28;20412;-85
2021/01/12 11:13:00;;;;;;;5.10;2.25;;;;;;;4.89;100.00;100219.44;5061278;28;20495;-85
2021/01/12 11:15:26;;;;;;;6.55;2.15;;;;;;;4.92;100.00;100216.50;5059457;28;20041;-85
2021/01/12 11:17:52;;;;;;;3.88;1.60;;;;;;;4.89;100.00;100219.44;5061716;28;20037;-85
2021/01/12 11:20:18;;;;;;;3.65;1.52;;;;;;;4.89;100.00;100206.16;5062107;28;20037;-85
2021/01/12 11:22:45;;;;;;;4.45;1.83;;;;;;;4.87;100.00;100214.28;5060623;28;20041;-85